Time;durP1;ratioP1;P1;durP2;ratioP2;P2;SDS_P1;SDS_P2;PMS_P1;PMS_P2;Temp;Humidity;BMP_temperature;BMP_pressure;BME280_temperature;BME280_humidity;BME280_pressure;Samples;Min_cycle;Max_cycle;Signal;HPM_P1;HPM_P2
2023/06/22 00:00:54;;;;;;;224.40;144.93;;;;;;;;;;4938614;29;20015;-71
2023/06/22 00:03:21;;;;;;;371.17;274.33;;;;;;;;;;4938381;29;20477;-71
2023/06/22 00:05:48;;;;;;;87.75;63.13;;;;;;;;;;4938694;29;20043;-70
2023/06/22 00:08:15;;;;;;;87.75;59.70;;;;;;;;;;4938448;29;20035;-72
2023/06/22 00:10:43;;;;;;;81.97;59.33;;;;;;;;;;4938425;29;20051;-71
2023/06/22 00:13:10;;;;;;;93.75;68.75;;;;;;;;;;4943663;29;20043;-72
2023/06/22 00:15:38;;;;;;;71.82;49.70;;;;;;;;;;4948855;29;20062;-72
2023/06/22 00:18:05;;;;;;;68.40;51.80;;;;;;;;;;4939698;29;20024;-69
2023/06/22 00:20:32;;;;;;;58.17;43.08;;;;;;;;;;4939034;29;20024;-69
2023/06/22 00:23:00;;;;;;;61.10;40.83;;;;;;;;;;4946418;29;20388;-69
2023/06/22 00:25:27;;;;;;;70.03;49.83;;;;;;;;;;4958792;29;20118;-69
2023/06/22 00:27:53;;;;;;;68.80;50.70;;;;;;;;;;4958671;29;20023;-72
2023/06/22 00:30:20;;;;;;;60.83;44.30;;;;;;;;;;4958596;29;20027;-68
2023/06/22 00:32:47;;;;;;;59.03;44.17;;;;;;;;;;4958337;29;20050;-66
2023/06/22 00:35:13;;;;;;;72.43;50.08;;;;;;;;;;4958699;29;20027;-65
2023/06/22 00:37:43;;;;;;;71.65;47.22;;;;;;;;;;4958274;29;20082;-69
2023/06/22 00:40:11;;;;;;;67.88;45.80;;;;;;;;;;4958706;29;20055;-65
2023/06/22 00:42:41;;;;;;;60.58;41.88;;;;;;;;;;4957169;29;20110;-66
2023/06/22 00:45:08;;;;;;;53.25;39.17;;;;;;;;;;4956930;29;20083;-66
2023/06/22 00:47:36;;;;;;;131.88;101.75;;;;;;;;;;4954516;29;20108;-70
2023/06/22 00:50:03;;;;;;;64.65;45.05;;;;;;;;;;4930085;29;20028;-67
2023/06/22 00:52:33;;;;;;;61.25;44.70;;;;;;;;;;4926997;29;20054;-67
2023/06/22 00:55:01;;;;;;;60.75;41.45;;;;;;;;;;4930204;29;20019;-68
2023/06/22 00:57:28;;;;;;;57.03;41.95;;;;;;;;;;4930932;29;20024;-68
2023/06/22 00:59:55;;;;;;;57.40;43.13;;;;;;;;;;4926542;29;20019;-67
2023/06/22 01:02:21;;;;;;;62.05;43.72;;;;;;;;;;4910839;29;20031;-67
2023/06/22 01:04:48;;;;;;;60.05;43.55;;;;;;;;;;4926775;29;20110;-66
2023/06/22 01:07:15;;;;;;;65.63;48.05;;;;;;;;;;4926320;29;20496;-67
2023/06/22 01:09:55;;;;;;;66.15;49.38;;;;;;;;;;4927805;29;20033;-68
2023/06/22 01:12:22;;;;;;;67.78;47.40;;;;;;;;;;4927785;29;20082;-68
2023/06/22 01:14:56;;;;;;;67.30;45.70;;;;;;;;;;4926641;29;20020;-68
2023/06/22 01:17:24;;;;;;;66.55;48.40;;;;;;;;;;4925345;29;20031;-68
2023/06/22 01:19:57;;;;;;;69.35;49.72;;;;;;;;;;4926785;29;20031;-68
2023/06/22 01:22:29;;;;;;;73.00;50.38;;;;;;;;;;4908680;29;20026;-68
2023/06/22 01:25:13;;;;;;;77.80;49.03;;;;;;;;;;4927692;29;20020;-68
2023/06/22 01:27:45;;;;;;;69.63;52.33;;;;;;;;;;4930339;29;20075;-70
2023/06/22 01:30:12;;;;;;;79.05;52.80;;;;;;;;;;4927052;29;20024;-69
2023/06/22 01:32:40;;;;;;;72.15;53.70;;;;;;;;;;4925228;29;20040;-68
2023/06/22 01:35:07;;;;;;;95.03;67.57;;;;;;;;;;4926773;29;20054;-69
2023/06/22 01:37:35;;;;;;;76.68;57.67;;;;;;;;;;4926959;29;20075;-68
2023/06/22 01:40:04;;;;;;;92.68;66.53;;;;;;;;;;4925378;29;20028;-68
2023/06/22 01:42:32;;;;;;;92.22;63.55;;;;;;;;;;4926345;29;20020;-68
2023/06/22 01:45:00;;;;;;;81.15;60.00;;;;;;;;;;4927073;29;20509;-69
2023/06/22 01:47:27;;;;;;;82.63;55.67;;;;;;;;;;4925689;29;20032;-69
2023/06/22 01:49:54;;;;;;;103.25;73.10;;;;;;;;;;4925626;29;20035;-69
2023/06/22 01:52:21;;;;;;;89.40;60.92;;;;;;;;;;4910230;29;20027;-68
2023/06/22 01:54:48;;;;;;;77.65;55.42;;;;;;;;;;4925714;29;20028;-70
2023/06/22 01:57:15;;;;;;;71.97;55.75;;;;;;;;;;4908238;29;20020;-71
2023/06/22 01:59:53;;;;;;;89.10;65.05;;;;;;;;;;4930414;29;20030;-71
2023/06/22 02:02:26;;;;;;;80.18;59.60;;;;;;;;;;4927235;29;20075;-69
2023/06/22 02:04:58;;;;;;;91.80;62.90;;;;;;;;;;4925653;29;20028;-70
2023/06/22 02:07:29;;;;;;;139.95;96.53;;;;;;;;;;4934567;29;20028;-72
2023/06/22 02:09:56;;;;;;;219.68;150.30;;;;;;;;;;4926684;29;20024;-70
2023/06/22 02:12:24;;;;;;;152.15;106.53;;;;;;;;;;4926179;29;20055;-69
2023/06/22 02:14:52;;;;;;;227.48;141.27;;;;;;;;;;4925371;29;20048;-70
2023/06/22 02:17:19;;;;;;;167.18;106.60;;;;;;;;;;4924310;29;20084;-70
2023/06/22 02:19:45;;;;;;;121.75;85.32;;;;;;;;;;4926403;29;20019;-70
2023/06/22 02:22:15;;;;;;;89.32;65.55;;;;;;;;;;4925815;29;20020;-71
2023/06/22 02:24:42;;;;;;;267.77;193.35;;;;;;;;;;4924517;29;20077;-70
2023/06/22 02:27:10;;;;;;;104.90;74.85;;;;;;;;;;4925986;29;20019;-70
2023/06/22 02:29:36;;;;;;;111.25;78.68;;;;;;;;;;4928358;29;20016;-70
2023/06/22 02:32:04;;;;;;;76.18;55.03;;;;;;;;;;4928112;29;20090;-71
2023/06/22 02:34:30;;;;;;;95.70;68.53;;;;;;;;;;4925640;29;20088;-71
2023/06/22 02:36:59;;;;;;;89.85;66.05;;;;;;;;;;4930829;29;20397;-70
2023/06/22 02:39:26;;;;;;;75.03;52.83;;;;;;;;;;4924787;29;20016;-73
2023/06/22 02:41:54;;;;;;;58.38;41.72;;;;;;;;;;4925675;29;20058;-71
2023/06/22 02:44:21;;;;;;;58.65;45.65;;;;;;;;;;4928517;29;20071;-73
2023/06/22 02:46:48;;;;;;;95.63;71.28;;;;;;;;;;4925457;29;20056;-72
2023/06/22 02:49:17;;;;;;;84.32;63.88;;;;;;;;;;4924507;29;20020;-73
2023/06/22 02:51:48;;;;;;;162.95;109.28;;;;;;;;;;4925438;29;20028;-72
2023/06/22 02:54:14;;;;;;;114.30;80.38;;;;;;;;;;4927984;29;20046;-71
2023/06/22 02:56:44;;;;;;;106.22;72.57;;;;;;;;;;4929296;29;20028;-72
2023/06/22 02:59:11;;;;;;;102.50;69.93;;;;;;;;;;4932150;29;20023;-70
2023/06/22 03:01:39;;;;;;;105.22;70.57;;;;;;;;;;4935828;29;20028;-71
2023/06/22 03:04:07;;;;;;;97.10;63.55;;;;;;;;;;4935856;29;20030;-71
2023/06/22 03:06:34;;;;;;;90.20;63.35;;;;;;;;;;4935678;29;20075;-71
2023/06/22 03:09:01;;;;;;;79.55;53.97;;;;;;;;;;4935627;29;20059;-71
2023/06/22 03:11:28;;;;;;;69.90;48.85;;;;;;;;;;4935719;29;20032;-72
2023/06/22 03:13:54;;;;;;;71.90;50.95;;;;;;;;;;4944156;29;20082;-71
2023/06/22 03:16:21;;;;;;;74.43;47.70;;;;;;;;;;4941117;29;20604;-71
2023/06/22 03:18:48;;;;;;;81.07;54.03;;;;;;;;;;4947700;29;20110;-72
2023/06/22 03:21:15;;;;;;;83.10;56.72;;;;;;;;;;4939310;29;20024;-71
2023/06/22 03:23:42;;;;;;;94.28;60.78;;;;;;;;;;4939411;29;20406;-71
2023/06/22 03:26:11;;;;;;;92.53;59.20;;;;;;;;;;4939135;29;20031;-68
2023/06/22 03:28:38;;;;;;;117.85;71.78;;;;;;;;;;4942240;29;20043;-72
2023/06/22 03:31:06;;;;;;;124.95;70.22;;;;;;;;;;4939060;29;20063;-70
2023/06/22 03:33:33;;;;;;;106.25;64.82;;;;;;;;;;4924897;29;20079;-71
2023/06/22 03:36:00;;;;;;;89.57;55.75;;;;;;;;;;4927263;29;20032;-69
2023/06/22 03:38:26;;;;;;;73.68;48.83;;;;;;;;;;4926364;29;20108;-69
2023/06/22 03:40:53;;;;;;;77.10;52.03;;;;;;;;;;4920770;29;20030;-70
2023/06/22 03:43:20;;;;;;;72.07;49.35;;;;;;;;;;4919717;29;20027;-70
2023/06/22 03:45:46;;;;;;;73.75;47.97;;;;;;;;;;4919632;29;20032;-71
2023/06/22 03:48:13;;;;;;;99.72;73.10;;;;;;;;;;4919729;29;20032;-73
2023/06/22 03:50:40;;;;;;;55.92;36.92;;;;;;;;;;4919390;29;20465;-71
2023/06/22 03:53:07;;;;;;;45.90;32.85;;;;;;;;;;4919849;29;20032;-72
2023/06/22 03:55:35;;;;;;;60.60;43.53;;;;;;;;;;4923993;29;20024;-73
2023/06/22 03:58:05;;;;;;;62.97;38.70;;;;;;;;;;4917304;29;20028;-70
2023/06/22 04:00:32;;;;;;;53.38;38.35;;;;;;;;;;4918428;29;20036;-73
2023/06/22 04:02:59;;;;;;;48.58;37.30;;;;;;;;;;4919004;29;20076;-72
2023/06/22 04:05:26;;;;;;;36.72;28.45;;;;;;;;;;4919031;29;20028;-72
2023/06/22 04:07:52;;;;;;;39.00;29.60;;;;;;;;;;4902194;29;20036;-73
2023/06/22 04:10:19;;;;;;;41.67;31.40;;;;;;;;;;4919655;29;20024;-73
2023/06/22 04:12:46;;;;;;;42.53;31.27;;;;;;;;;;4919235;29;20046;-72
2023/06/22 04:15:12;;;;;;;36.65;30.10;;;;;;;;;;4919091;29;20031;-72
2023/06/22 04:17:39;;;;;;;35.33;28.55;;;;;;;;;;4919177;29;20027;-73
2023/06/22 04:20:06;;;;;;;44.95;36.10;;;;;;;;;;4919177;29;20032;-70
2023/06/22 04:22:33;;;;;;;41.78;32.75;;;;;;;;;;4922191;29;20024;-70
2023/06/22 04:24:59;;;;;;;40.20;32.25;;;;;;;;;;4929746;29;20064;-70
2023/06/22 04:27:26;;;;;;;37.15;29.63;;;;;;;;;;4937533;29;20484;-70
2023/06/22 04:29:52;;;;;;;39.28;27.65;;;;;;;;;;4937889;29;20027;-70
2023/06/22 04:32:19;;;;;;;38.40;30.63;;;;;;;;;;4937722;28;20515;-71
2023/06/22 04:34:46;;;;;;;35.72;27.30;;;;;;;;;;4938143;29;20020;-71
2023/06/22 04:37:15;;;;;;;43.70;31.13;;;;;;;;;;4937940;29;20023;-70
2023/06/22 04:39:43;;;;;;;45.95;34.30;;;;;;;;;;4937936;29;20020;-70
2023/06/22 04:42:09;;;;;;;49.80;36.75;;;;;;;;;;4920725;29;20024;-70
2023/06/22 04:44:36;;;;;;;51.85;38.00;;;;;;;;;;4937611;29;20027;-69
2023/06/22 04:47:03;;;;;;;39.47;29.58;;;;;;;;;;4937737;29;20489;-70
2023/06/22 04:49:35;;;;;;;47.85;37.40;;;;;;;;;;4937735;29;20461;-70
2023/06/22 04:52:03;;;;;;;53.95;40.10;;;;;;;;;;4937365;29;20016;-70
2023/06/22 04:54:32;;;;;;;46.55;35.03;;;;;;;;;;4937641;29;20023;-70
2023/06/22 04:57:03;;;;;;;44.15;35.95;;;;;;;;;;4937444;29;20028;-70
2023/06/22 04:59:30;;;;;;;41.03;30.83;;;;;;;;;;4937514;29;20028;-69
2023/06/22 05:02:02;;;;;;;35.22;28.05;;;;;;;;;;4937401;29;20030;-69
2023/06/22 05:04:33;;;;;;;33.97;28.80;;;;;;;;;;4937241;29;20046;-71
2023/06/22 05:07:00;;;;;;;42.95;35.55;;;;;;;;;;4937427;29;20039;-69
2023/06/22 05:09:27;;;;;;;41.38;26.75;;;;;;;;;;4937645;29;20023;-70
2023/06/22 05:11:53;;;;;;;35.38;27.00;;;;;;;;;;4937025;29;20412;-70
2023/06/22 05:14:20;;;;;;;31.80;25.17;;;;;;;;;;4937216;29;20028;-71
2023/06/22 05:16:47;;;;;;;36.50;28.05;;;;;;;;;;4937088;29;20023;-71
2023/06/22 05:19:14;;;;;;;42.33;30.20;;;;;;;;;;4936920;29;20099;-71
2023/06/22 05:21:40;;;;;;;51.10;33.80;;;;;;;;;;4936984;29;20438;-71
2023/06/22 05:24:07;;;;;;;44.67;30.55;;;;;;;;;;4935688;29;20031;-71
2023/06/22 05:26:34;;;;;;;35.53;27.83;;;;;;;;;;4936720;29;20070;-71
2023/06/22 05:29:02;;;;;;;32.88;27.50;;;;;;;;;;4937054;29;20102;-71
2023/06/22 05:31:29;;;;;;;34.35;26.85;;;;;;;;;;4937096;29;20132;-71
2023/06/22 05:33:56;;;;;;;33.53;26.63;;;;;;;;;;4936772;29;20056;-72
2023/06/22 05:36:25;;;;;;;33.60;26.38;;;;;;;;;;4926682;29;20050;-71
2023/06/22 05:38:58;;;;;;;40.10;28.73;;;;;;;;;;4907433;29;20076;-70
2023/06/22 05:41:24;;;;;;;46.03;30.67;;;;;;;;;;4906196;29;20052;-71
2023/06/22 05:43:51;;;;;;;42.25;28.52;;;;;;;;;;4906858;29;20032;-72
2023/06/22 05:46:18;;;;;;;54.05;33.65;;;;;;;;;;4908409;29;20102;-71
2023/06/22 05:48:44;;;;;;;36.83;27.98;;;;;;;;;;4907328;29;20044;-72
2023/06/22 05:51:11;;;;;;;35.28;25.92;;;;;;;;;;4907826;29;20031;-73
2023/06/22 05:53:38;;;;;;;29.70;24.13;;;;;;;;;;4908668;29;20042;-71
2023/06/22 05:56:04;;;;;;;34.47;24.48;;;;;;;;;;4915393;29;20056;-74
2023/06/22 05:58:31;;;;;;;33.00;25.33;;;;;;;;;;4917382;29;20032;-73
2023/06/22 06:00:57;;;;;;;40.00;27.27;;;;;;;;;;4917578;29;20099;-73
2023/06/22 06:03:24;;;;;;;37.25;25.67;;;;;;;;;;4917438;29;20470;-71
2023/06/22 06:05:51;;;;;;;34.35;25.27;;;;;;;;;;4922456;29;20039;-72
2023/06/22 06:08:17;;;;;;;32.13;24.77;;;;;;;;;;4928640;29;20151;-72
2023/06/22 06:10:44;;;;;;;31.48;25.48;;;;;;;;;;4936250;29;20035;-73
2023/06/22 06:13:11;;;;;;;38.08;28.10;;;;;;;;;;4936236;29;20056;-72
2023/06/22 06:15:38;;;;;;;31.00;26.83;;;;;;;;;;4936327;29;20481;-73
2023/06/22 06:18:07;;;;;;;37.60;29.50;;;;;;;;;;4919150;29;20032;-71
2023/06/22 06:20:34;;;;;;;37.95;27.58;;;;;;;;;;4935691;29;20019;-73
2023/06/22 06:23:00;;;;;;;34.13;26.38;;;;;;;;;;4935894;29;20038;-74
2023/06/22 06:25:27;;;;;;;30.70;25.42;;;;;;;;;;4935609;29;20027;-75
2023/06/22 06:27:56;;;;;;;30.73;25.33;;;;;;;;;;4936088;29;20039;-74
2023/06/22 06:30:23;;;;;;;34.60;26.52;;;;;;;;;;4935758;29;20020;-74
2023/06/22 06:32:51;;;;;;;31.02;24.92;;;;;;;;;;4935516;29;20047;-75
2023/06/22 06:35:18;;;;;;;31.50;25.52;;;;;;;;;;4935930;29;20120;-74
2023/06/22 06:37:46;;;;;;;29.83;25.48;;;;;;;;;;4935792;29;20035;-75
2023/06/22 06:40:13;;;;;;;30.67;25.63;;;;;;;;;;4935627;29;20024;-74
2023/06/22 06:42:44;;;;;;;30.20;26.02;;;;;;;;;;4935856;29;20034;-74
2023/06/22 06:45:18;;;;;;;32.40;25.67;;;;;;;;;;4935957;29;20019;-74
2023/06/22 06:47:45;;;;;;;37.22;27.55;;;;;;;;;;4934365;29;20516;-74
2023/06/22 06:50:12;;;;;;;32.47;26.50;;;;;;;;;;4935752;29;20031;-74
2023/06/22 06:52:39;;;;;;;33.90;25.73;;;;;;;;;;4939326;29;20107;-74
2023/06/22 06:55:08;;;;;;;33.38;25.55;;;;;;;;;;4939636;29;20030;-73
2023/06/22 06:57:35;;;;;;;32.90;24.58;;;;;;;;;;4939594;29;20019;-74
2023/06/22 07:00:02;;;;;;;28.55;24.42;;;;;;;;;;4939804;29;20486;-74
2023/06/22 07:02:29;;;;;;;30.08;25.08;;;;;;;;;;4939499;29;20110;-74
2023/06/22 07:04:59;;;;;;;28.95;24.80;;;;;;;;;;4922502;29;20039;-74
2023/06/22 07:07:25;;;;;;;27.52;23.73;;;;;;;;;;4939648;29;20027;-74
2023/06/22 07:09:52;;;;;;;31.52;25.25;;;;;;;;;;4939488;29;20035;-74
2023/06/22 07:12:18;;;;;;;31.73;25.73;;;;;;;;;;4939387;29;20035;-74
2023/06/22 07:14:45;;;;;;;38.97;27.95;;;;;;;;;;4939399;29;20027;-74
2023/06/22 07:17:12;;;;;;;34.10;27.63;;;;;;;;;;4939230;29;20437;-74
2023/06/22 07:19:38;;;;;;;35.05;29.02;;;;;;;;;;4939281;29;20421;-75
2023/06/22 07:22:05;;;;;;;38.20;27.92;;;;;;;;;;4939318;29;20028;-75
2023/06/22 07:24:32;;;;;;;34.17;25.30;;;;;;;;;;4939027;29;20394;-75
2023/06/22 07:26:59;;;;;;;30.77;24.95;;;;;;;;;;4939223;29;20058;-74
2023/06/22 07:29:26;;;;;;;28.63;24.50;;;;;;;;;;4939172;29;20039;-74
2023/06/22 07:31:56;;;;;;;31.05;23.25;;;;;;;;;;4938738;29;20024;-74
2023/06/22 07:34:23;;;;;;;35.95;26.27;;;;;;;;;;4939027;29;20127;-74
2023/06/22 07:36:49;;;;;;;38.08;28.77;;;;;;;;;;4938941;29;20085;-74
2023/06/22 07:39:16;;;;;;;40.30;28.95;;;;;;;;;;4938748;29;20027;-74
2023/06/22 07:41:43;;;;;;;30.48;26.80;;;;;;;;;;4939003;29;20079;-75
2023/06/22 07:44:10;;;;;;;33.35;27.40;;;;;;;;;;4938949;29;20110;-74
2023/06/22 07:46:36;;;;;;;32.92;27.42;;;;;;;;;;4921665;29;20028;-74
2023/06/22 07:49:03;;;;;;;32.10;26.10;;;;;;;;;;4938861;29;20032;-75
2023/06/22 07:51:29;;;;;;;35.08;28.02;;;;;;;;;;4938737;29;20023;-74
2023/06/22 07:53:56;;;;;;;33.85;26.88;;;;;;;;;;4921555;29;20059;-75
2023/06/22 07:56:23;;;;;;;33.80;27.55;;;;;;;;;;4939051;29;20045;-73
2023/06/22 07:58:49;;;;;;;35.85;29.50;;;;;;;;;;4939101;29;20147;-74
2023/06/22 08:01:16;;;;;;;44.13;31.50;;;;;;;;;;4938965;29;20434;-73
2023/06/22 08:03:43;;;;;;;46.03;33.25;;;;;;;;;;4938243;29;20028;-74
2023/06/22 08:06:10;;;;;;;38.08;30.17;;;;;;;;;;4939064;29;20049;-74
2023/06/22 08:08:37;;;;;;;48.25;33.80;;;;;;;;;;4938724;29;20038;-74
2023/06/22 08:11:05;;;;;;;36.83;26.83;;;;;;;;;;4939023;29;20031;-74
2023/06/22 08:13:31;;;;;;;28.23;23.95;;;;;;;;;;4938939;29;20028;-72
2023/06/22 08:15:58;;;;;;;30.25;24.00;;;;;;;;;;4938492;29;20031;-73
2023/06/22 08:18:24;;;;;;;29.92;24.25;;;;;;;;;;4921587;29;20292;-74
2023/06/22 08:20:51;;;;;;;29.33;23.05;;;;;;;;;;4938512;29;20487;-74
2023/06/22 08:23:18;;;;;;;44.97;31.17;;;;;;;;;;4938382;29;20062;-74
2023/06/22 08:25:45;;;;;;;52.28;34.50;;;;;;;;;;4939181;29;20035;-74
2023/06/22 08:28:13;;;;;;;55.70;40.75;;;;;;;;;;4938368;29;20034;-74
2023/06/22 08:30:39;;;;;;;55.30;42.97;;;;;;;;;;4938214;29;20030;-74
2023/06/22 08:33:06;;;;;;;52.25;37.97;;;;;;;;;;4937602;29;20049;-74
2023/06/22 08:35:32;;;;;;;47.92;35.47;;;;;;;;;;4938269;29;20027;-75
2023/06/22 08:37:59;;;;;;;54.30;37.05;;;;;;;;;;4938424;29;20094;-74
2023/06/22 08:40:26;;;;;;;36.88;29.63;;;;;;;;;;4938353;29;20055;-74
2023/06/22 08:42:53;;;;;;;35.78;28.52;;;;;;;;;;4938136;29;20028;-74
2023/06/22 08:45:20;;;;;;;36.95;26.13;;;;;;;;;;4937977;29;20024;-74
2023/06/22 08:47:46;;;;;;;36.65;27.90;;;;;;;;;;4937640;29;20024;-74
2023/06/22 08:50:13;;;;;;;37.28;29.42;;;;;;;;;;4937779;29;20462;-74
2023/06/22 08:52:43;;;;;;;40.40;29.30;;;;;;;;;;4937754;29;20445;-75
2023/06/22 08:55:10;;;;;;;35.33;28.38;;;;;;;;;;4937642;29;20024;-74
2023/06/22 08:57:38;;;;;;;42.10;28.88;;;;;;;;;;4937745;29;20481;-74
2023/06/22 09:00:11;;;;;;;33.05;23.63;;;;;;;;;;4937824;29;20358;-73
2023/06/22 09:02:40;;;;;;;31.20;24.05;;;;;;;;;;4937536;29;20079;-74
2023/06/22 09:05:07;;;;;;;28.77;24.42;;;;;;;;;;4937645;29;20417;-74
2023/06/22 09:07:34;;;;;;;30.05;23.70;;;;;;;;;;4937405;29;20027;-74
2023/06/22 09:10:01;;;;;;;35.03;26.05;;;;;;;;;;4920218;29;20028;-74
2023/06/22 09:12:30;;;;;;;33.10;26.60;;;;;;;;;;4937582;29;20027;-73
2023/06/22 09:14:57;;;;;;;34.33;27.25;;;;;;;;;;4937898;29;20513;-71
2023/06/22 09:17:23;;;;;;;37.65;27.88;;;;;;;;;;4938440;29;20048;-74
2023/06/22 09:19:50;;;;;;;32.80;26.42;;;;;;;;;;4937599;29;20070;-74
2023/06/22 09:22:17;;;;;;;41.97;30.70;;;;;;;;;;4937729;29;20026;-76
2023/06/22 09:24:43;;;;;;;42.95;31.80;;;;;;;;;;4921362;29;20425;-74
2023/06/22 09:27:10;;;;;;;33.22;26.95;;;;;;;;;;4937954;29;20024;-74
2023/06/22 09:29:37;;;;;;;40.42;27.95;;;;;;;;;;4937618;29;20016;-72
2023/06/22 09:32:03;;;;;;;40.38;29.10;;;;;;;;;;4937684;29;20028;-69
2023/06/22 09:34:31;;;;;;;45.22;32.30;;;;;;;;;;4937644;29;20055;-71
2023/06/22 09:37:00;;;;;;;44.20;31.10;;;;;;;;;;4937506;29;20031;-71
2023/06/22 09:39:27;;;;;;;40.00;29.85;;;;;;;;;;4937765;29;20501;-71
2023/06/22 09:41:53;;;;;;;54.88;35.63;;;;;;;;;;4902533;29;20028;-71
2023/06/22 09:44:20;;;;;;;73.15;46.38;;;;;;;;;;4917959;29;20034;-73
2023/06/22 09:46:47;;;;;;;62.75;41.38;;;;;;;;;;4918527;29;20032;-73
2023/06/22 09:49:13;;;;;;;60.35;41.15;;;;;;;;;;4918541;29;20107;-73
2023/06/22 09:51:40;;;;;;;125.68;77.13;;;;;;;;;;4920410;29;20393;-71
2023/06/22 09:54:06;;;;;;;293.48;166.43;;;;;;;;;;4928850;29;20032;-74
2023/06/22 09:56:33;;;;;;;621.15;378.55;;;;;;;;;;4937569;29;20232;-74
2023/06/22 09:59:00;;;;;;;461.90;281.55;;;;;;;;;;4920098;29;20023;-73
2023/06/22 10:01:26;;;;;;;356.27;204.52;;;;;;;;;;4920134;29;20035;-73
2023/06/22 10:03:56;;;;;;;544.17;296.83;;;;;;;;;;4920306;29;20078;-74
2023/06/22 10:06:24;;;;;;;169.85;80.55;;;;;;;;;;4936891;29;20500;-73
2023/06/22 10:08:52;;;;;;;327.73;129.35;;;;;;;;;;4937219;29;20477;-74
2023/06/22 10:11:18;;;;;;;242.27;104.90;;;;;;;;;;4936981;29;20035;-73
2023/06/22 10:13:45;;;;;;;274.85;113.10;;;;;;;;;;4937012;29;20024;-73
2023/06/22 10:16:11;;;;;;;317.08;158.95;;;;;;;;;;4919729;29;20412;-74
2023/06/22 10:18:38;;;;;;;242.73;136.80;;;;;;;;;;4937008;29;20384;-75
2023/06/22 10:21:05;;;;;;;232.80;128.93;;;;;;;;;;4936922;29;20028;-74
2023/06/22 10:23:31;;;;;;;192.55;110.20;;;;;;;;;;4936829;29;20115;-73
2023/06/22 10:25:58;;;;;;;157.10;94.63;;;;;;;;;;4936116;29;20496;-75
2023/06/22 10:28:25;;;;;;;198.82;120.75;;;;;;;;;;4936447;29;20103;-74
2023/06/22 10:30:51;;;;;;;93.78;56.95;;;;;;;;;;4936470;29;20034;-72
2023/06/22 10:33:18;;;;;;;142.30;85.72;;;;;;;;;;4949205;23;20059;-74
2023/06/22 10:35:45;;;;;;;138.93;78.55;;;;;;;;;;4955840;29;20023;-75
2023/06/22 10:38:12;;;;;;;85.93;50.47;;;;;;;;;;4955732;29;20024;-73
2023/06/22 10:40:39;;;;;;;134.38;68.80;;;;;;;;;;4955935;29;20038;-73
2023/06/22 10:43:06;;;;;;;161.35;76.93;;;;;;;;;;4955547;29;20024;-72
2023/06/22 10:45:32;;;;;;;231.82;103.05;;;;;;;;;;4955331;29;20023;-70
2023/06/22 10:47:59;;;;;;;117.72;57.40;;;;;;;;;;4955329;29;20098;-73
2023/06/22 10:50:26;;;;;;;153.07;69.43;;;;;;;;;;4955166;29;20016;-73
2023/06/22 10:52:53;;;;;;;171.50;76.38;;;;;;;;;;4954911;29;20031;-73
2023/06/22 10:55:19;;;;;;;150.90;64.88;;;;;;;;;;4955270;28;20130;-72
2023/06/22 10:57:46;;;;;;;137.15;62.08;;;;;;;;;;4955529;29;20035;-73
2023/06/22 11:00:15;;;;;;;104.65;50.55;;;;;;;;;;4955008;29;20034;-74
2023/06/22 11:02:42;;;;;;;105.82;51.72;;;;;;;;;;4955166;29;20477;-74
2023/06/22 11:05:09;;;;;;;90.75;45.30;;;;;;;;;;4955204;29;20031;-74
2023/06/22 11:07:35;;;;;;;90.07;44.42;;;;;;;;;;4954885;29;20473;-75
2023/06/22 11:10:02;;;;;;;91.40;44.08;;;;;;;;;;4953769;29;20381;-75
2023/06/22 11:12:32;;;;;;;80.72;39.38;;;;;;;;;;4954979;29;20393;-75
2023/06/22 11:14:58;;;;;;;113.72;54.63;;;;;;;;;;4953624;29;20131;-72
2023/06/22 11:17:25;;;;;;;75.40;42.85;;;;;;;;;;4954978;29;20388;-72
2023/06/22 11:19:51;;;;;;;69.47;43.03;;;;;;;;;;4953699;28;20023;-72
2023/06/22 11:22:18;;;;;;;58.83;35.67;;;;;;;;;;4954823;29;20027;-72
2023/06/22 11:24:45;;;;;;;60.50;34.67;;;;;;;;;;4955442;29;20023;-72
2023/06/22 11:27:11;;;;;;;59.45;37.28;;;;;;;;;;4955156;29;20440;-71
2023/06/22 11:29:39;;;;;;;72.18;37.45;;;;;;;;;;4955062;29;20030;-71
2023/06/22 11:32:07;;;;;;;55.65;35.13;;;;;;;;;;4954013;29;20388;-71
2023/06/22 11:34:34;;;;;;;48.25;33.35;;;;;;;;;;4934645;29;20039;-70
2023/06/22 11:37:00;;;;;;;57.78;34.40;;;;;;;;;;4935820;29;20054;-72
2023/06/22 11:39:27;;;;;;;52.63;36.22;;;;;;;;;;4944473;29;20397;-71
2023/06/22 11:41:54;;;;;;;71.53;40.50;;;;;;;;;;4949915;29;20027;-68
2023/06/22 11:44:20;;;;;;;65.43;38.72;;;;;;;;;;4946587;29;20027;-70
2023/06/22 11:46:48;;;;;;;55.13;34.50;;;;;;;;;;4955631;29;20178;-70
2023/06/22 11:49:14;;;;;;;54.60;35.75;;;;;;;;;;4958470;29;20106;-71
2023/06/22 11:51:41;;;;;;;153.90;119.72;;;;;;;;;;4947740;29;20024;-69
2023/06/22 11:54:08;;;;;;;93.25;64.38;;;;;;;;;;4938991;29;20052;-70
2023/06/22 11:56:34;;;;;;;90.57;58.15;;;;;;;;;;4939183;29;20024;-70
2023/06/22 11:59:01;;;;;;;69.47;48.50;;;;;;;;;;4939182;29;20051;-71
2023/06/22 12:01:27;;;;;;;58.95;35.85;;;;;;;;;;4922445;29;20465;-73
2023/06/22 12:03:54;;;;;;;46.08;30.75;;;;;;;;;;4939127;29;20034;-69
2023/06/22 12:06:21;;;;;;;53.08;34.60;;;;;;;;;;4922268;29;20370;-72
2023/06/22 12:08:47;;;;;;;49.60;32.72;;;;;;;;;;4938805;29;20031;-70
2023/06/22 12:11:14;;;;;;;44.60;31.48;;;;;;;;;;4938789;29;20050;-72
2023/06/22 12:13:43;;;;;;;59.03;34.92;;;;;;;;;;4940774;29;20020;-71
2023/06/22 12:16:10;;;;;;;91.55;61.45;;;;;;;;;;4947177;29;20055;-72
2023/06/22 12:18:36;;;;;;;97.50;68.05;;;;;;;;;;4931062;29;20380;-70
2023/06/22 12:21:03;;;;;;;99.43;71.45;;;;;;;;;;4931466;29;20019;-71
2023/06/22 12:23:30;;;;;;;84.82;58.70;;;;;;;;;;4946463;29;20024;-71
2023/06/22 12:25:56;;;;;;;53.38;36.75;;;;;;;;;;4948089;29;20027;-72
2023/06/22 12:28:23;;;;;;;48.00;34.05;;;;;;;;;;4948656;29;20020;-70
2023/06/22 12:30:50;;;;;;;45.47;31.17;;;;;;;;;;4946775;29;20039;-70
2023/06/22 12:33:17;;;;;;;45.35;31.35;;;;;;;;;;4947663;29;20071;-72
2023/06/22 12:35:45;;;;;;;53.30;32.25;;;;;;;;;;4948307;29;20028;-69
2023/06/22 12:38:11;;;;;;;49.10;32.40;;;;;;;;;;4946451;29;20380;-71
2023/06/22 12:40:38;;;;;;;51.33;30.60;;;;;;;;;;4947361;29;20082;-68
2023/06/22 12:43:05;;;;;;;47.63;30.45;;;;;;;;;;4948577;29;20055;-68
2023/06/22 12:45:33;;;;;;;47.90;30.75;;;;;;;;;;4949110;29;20099;-66
2023/06/22 12:48:00;;;;;;;57.05;32.65;;;;;;;;;;4946763;29;20039;-69
2023/06/22 12:50:26;;;;;;;50.83;30.67;;;;;;;;;;4943953;29;20034;-68
2023/06/22 12:52:53;;;;;;;44.55;31.70;;;;;;;;;;4939895;29;20067;-68
2023/06/22 12:55:20;;;;;;;54.30;31.50;;;;;;;;;;4921834;29;20024;-68
2023/06/22 12:57:46;;;;;;;49.78;30.60;;;;;;;;;;4944406;29;20032;-69
2023/06/22 13:00:13;;;;;;;45.03;33.15;;;;;;;;;;4945942;29;20023;-68
2023/06/22 13:02:40;;;;;;;49.88;31.30;;;;;;;;;;4945696;29;20020;-70
2023/06/22 13:05:07;;;;;;;40.60;27.60;;;;;;;;;;4944177;29;20032;-70
2023/06/22 13:07:33;;;;;;;35.28;27.30;;;;;;;;;;4928799;29;20385;-70
2023/06/22 13:10:00;;;;;;;35.85;27.25;;;;;;;;;;4945554;29;20103;-70
2023/06/22 13:12:27;;;;;;;31.77;24.50;;;;;;;;;;4944212;29;20024;-70
2023/06/22 13:14:54;;;;;;;32.80;23.65;;;;;;;;;;4945701;29;20028;-70
2023/06/22 13:17:20;;;;;;;29.38;23.40;;;;;;;;;;4945299;29;20030;-70
2023/06/22 13:19:47;;;;;;;36.20;24.20;;;;;;;;;;4944012;29;20159;-71
2023/06/22 13:22:30;;;;;;;35.45;24.02;;;;;;;;;;4945637;29;20027;-69
2023/06/22 13:24:57;;;;;;;31.02;23.40;;;;;;;;;;4939298;29;20020;-72
2023/06/22 13:27:24;;;;;;;26.00;21.88;;;;;;;;;;4944522;29;20255;-72
2023/06/22 13:29:51;;;;;;;33.88;23.73;;;;;;;;;;4945792;29;20503;-72
2023/06/22 13:32:18;;;;;;;30.35;22.85;;;;;;;;;;4944700;29;20020;-72
2023/06/22 13:34:44;;;;;;;30.25;23.92;;;;;;;;;;4943887;29;20040;-72
2023/06/22 13:37:11;;;;;;;27.67;22.30;;;;;;;;;;4953532;29;20078;-72
2023/06/22 13:39:38;;;;;;;31.02;24.95;;;;;;;;;;4945583;29;20031;-71
2023/06/22 13:42:04;;;;;;;32.15;22.70;;;;;;;;;;4949477;29;20380;-71
2023/06/22 13:44:31;;;;;;;459.35;346.27;;;;;;;;;;4946929;29;20080;-72
2023/06/22 13:46:58;;;;;;;78.38;59.72;;;;;;;;;;4946452;29;20039;-71
2023/06/22 13:49:24;;;;;;;47.30;36.33;;;;;;;;;;4944809;29;20027;-71
2023/06/22 13:51:51;;;;;;;87.00;59.83;;;;;;;;;;4946301;29;20388;-72
2023/06/22 13:54:18;;;;;;;65.47;48.58;;;;;;;;;;4946133;29;20047;-72
2023/06/22 13:56:44;;;;;;;33.15;22.55;;;;;;;;;;4944990;29;20091;-72
2023/06/22 13:59:11;;;;;;;36.22;23.23;;;;;;;;;;4946558;29;20118;-73
2023/06/22 14:01:39;;;;;;;30.80;22.52;;;;;;;;;;4946939;28;20029;-73
2023/06/22 14:04:06;;;;;;;32.55;22.23;;;;;;;;;;4944712;29;20030;-72
2023/06/22 14:06:33;;;;;;;34.80;22.58;;;;;;;;;;4946446;29;20080;-72
2023/06/22 14:09:00;;;;;;;38.97;22.33;;;;;;;;;;4945114;29;20339;-70
2023/06/22 14:11:26;;;;;;;43.13;24.60;;;;;;;;;;4946985;29;20060;-71
2023/06/22 14:13:53;;;;;;;32.58;22.15;;;;;;;;;;4946204;29;20027;-72